createdAt,value
2018-11-07T00:00:17.887Z,7.40
2018-11-07T00:02:46.476Z,7.40
2018-11-07T00:05:16.137Z,7.20
2018-11-07T00:07:44.846Z,7.30
2018-11-07T00:10:13.369Z,7.40
2018-11-07T00:12:41.901Z,7.30
2018-11-07T00:15:12.893Z,7.20
2018-11-07T00:17:41.482Z,7.20
2018-11-07T00:20:11.035Z,7.20
2018-11-07T00:22:39.667Z,7.10
2018-11-07T00:25:09.443Z,7.20
2018-11-07T00:27:38.010Z,7.10
2018-11-07T00:30:07.398Z,6.90
2018-11-07T00:32:35.947Z,7.10
2018-11-07T00:35:04.878Z,7.00
2018-11-07T00:37:33.309Z,7.00
2018-11-07T00:40:01.857Z,7.00
2018-11-07T00:42:30.517Z,6.70
2018-11-07T00:44:58.937Z,7.10
2018-11-07T00:47:27.848Z,6.90
2018-11-07T00:49:56.370Z,7.20
2018-11-07T00:52:24.983Z,7.10
2018-11-07T00:54:53.546Z,6.50
2018-11-07T00:57:22.071Z,7.30
2018-11-07T00:59:50.608Z,7.40
2018-11-07T01:02:19.153Z,7.30
2018-11-07T01:04:47.723Z,7.30
2018-11-07T01:07:16.280Z,7.30
2018-11-07T01:09:44.822Z,7.20
2018-11-07T01:12:13.359Z,7.30
2018-11-07T01:14:41.929Z,7.30
2018-11-07T01:17:10.439Z,7.30
2018-11-07T01:19:38.959Z,7.30
2018-11-07T01:22:07.553Z,7.30
2018-11-07T01:24:36.035Z,7.30
2018-11-07T01:27:04.687Z,7.30
2018-11-07T01:29:33.229Z,7.30
2018-11-07T01:32:01.787Z,7.20
2018-11-07T01:34:33.147Z,7.40
2018-11-07T01:37:01.683Z,7.00
2018-11-07T01:39:30.220Z,6.80
2018-11-07T01:41:58.790Z,7.00
2018-11-07T01:44:27.678Z,7.10
2018-11-07T01:46:56.207Z,7.00
2018-11-07T01:49:24.747Z,7.10
2018-11-07T01:51:53.257Z,7.00
2018-11-07T01:54:21.797Z,7.00
2018-11-07T01:56:50.347Z,7.00
2018-11-07T01:59:18.882Z,7.00
2018-11-07T02:01:47.443Z,7.00
2018-11-07T02:04:15.990Z,7.00
2018-11-07T02:06:44.565Z,6.90
2018-11-07T02:09:13.107Z,6.80
2018-11-07T02:11:41.638Z,6.80
2018-11-07T02:14:10.215Z,6.70
2018-11-07T02:16:38.729Z,6.70
2018-11-07T02:19:07.258Z,6.70
2018-11-07T02:21:35.770Z,6.70
2018-11-07T02:24:04.307Z,6.70
2018-11-07T02:26:32.811Z,6.80
2018-11-07T02:29:01.342Z,6.80
2018-11-07T02:31:29.879Z,6.80
2018-11-07T02:33:58.570Z,6.70
2018-11-07T02:36:27.090Z,6.60
2018-11-07T02:38:55.617Z,6.60
2018-11-07T02:41:24.142Z,6.50
2018-11-07T02:43:52.728Z,6.70
2018-11-07T02:46:21.318Z,6.60
2018-11-07T02:48:49.808Z,6.70
2018-11-07T02:51:18.336Z,6.60
2018-11-07T02:53:46.862Z,6.70
2018-11-07T02:56:15.356Z,6.70
2018-11-07T02:58:43.859Z,6.70
2018-11-07T03:01:12.484Z,6.60
2018-11-07T03:03:41.023Z,6.50
2018-11-07T03:06:16.143Z,6.50
2018-11-07T03:08:44.641Z,6.40
2018-11-07T03:11:13.150Z,6.50
2018-11-07T03:13:41.670Z,6.40
2018-11-07T03:16:10.174Z,6.50
2018-11-07T03:18:38.638Z,6.60
2018-11-07T03:21:07.183Z,6.60
2018-11-07T03:23:35.694Z,6.60
2018-11-07T03:26:04.220Z,6.50
2018-11-07T03:28:32.761Z,6.50
2018-11-07T03:31:01.256Z,6.00
2018-11-07T03:33:29.756Z,6.40
2018-11-07T03:35:58.336Z,6.40
2018-11-07T03:38:26.888Z,6.30
2018-11-07T03:40:55.479Z,6.30
2018-11-07T03:43:24.009Z,6.30
2018-11-07T03:45:59.476Z,6.30
2018-11-07T03:48:29.597Z,6.30
2018-11-07T03:50:58.180Z,6.30
2018-11-07T03:53:26.739Z,6.20
2018-11-07T03:55:55.487Z,6.20
2018-11-07T03:58:24.043Z,6.20
2018-11-07T04:00:52.570Z,6.30
2018-11-07T04:03:21.119Z,6.20
2018-11-07T04:05:49.656Z,6.20
2018-11-07T04:08:18.185Z,6.20
2018-11-07T04:10:46.970Z,6.20
2018-11-07T04:13:15.491Z,6.20
2018-11-07T04:15:44.065Z,6.00
2018-11-07T04:18:12.578Z,6.00
2018-11-07T04:20:41.135Z,6.00
2018-11-07T04:23:09.662Z,5.80
2018-11-07T04:25:38.181Z,5.80
2018-11-07T04:28:06.736Z,5.80
2018-11-07T04:30:35.262Z,5.70
2018-11-07T04:33:03.811Z,5.70
2018-11-07T04:35:32.345Z,5.50
2018-11-07T04:38:00.887Z,5.60
2018-11-07T04:40:29.371Z,5.50
2018-11-07T04:42:57.955Z,5.40
2018-11-07T04:45:26.485Z,5.70
2018-11-07T04:47:55.026Z,5.70
2018-11-07T04:50:23.547Z,5.60
2018-11-07T04:52:52.066Z,5.60
2018-11-07T04:55:20.623Z,5.50
2018-11-07T04:57:49.145Z,5.40
2018-11-07T05:02:46.211Z,5.30
2018-11-07T05:05:14.747Z,5.30
2018-11-07T05:07:43.424Z,5.20
2018-11-07T05:10:12.457Z,5.20
2018-11-07T05:12:45.088Z,5.20
2018-11-07T05:15:14.031Z,5.00
2018-11-07T05:17:42.611Z,5.30
2018-11-07T05:20:11.779Z,5.10
2018-11-07T05:25:10.135Z,5.40
2018-11-07T05:27:38.697Z,5.20
2018-11-07T05:32:35.899Z,5.40
2018-11-07T05:35:04.445Z,5.40
2018-11-07T05:37:33.003Z,5.40
2018-11-07T05:40:01.531Z,5.20
2018-11-07T05:42:30.073Z,5.30
2018-11-07T05:44:58.640Z,5.10
2018-11-07T05:47:27.191Z,5.20
2018-11-07T05:49:55.765Z,5.40
2018-11-07T05:52:24.296Z,5.20
2018-11-07T05:54:52.879Z,5.00
2018-11-07T05:57:21.470Z,5.20
2018-11-07T05:59:50.320Z,4.80
2018-11-07T06:02:18.866Z,5.10
2018-11-07T06:04:47.367Z,5.20
2018-11-07T06:07:15.851Z,5.20
2018-11-07T06:09:44.610Z,5.10
2018-11-07T06:12:13.124Z,5.20
2018-11-07T06:14:48.250Z,5.10
2018-11-07T06:17:16.918Z,5.10
2018-11-07T06:19:45.411Z,5.20
2018-11-07T06:22:13.860Z,5.10
2018-11-07T06:24:42.415Z,5.10
2018-11-07T06:27:10.901Z,5.00
2018-11-07T06:29:39.398Z,5.30
2018-11-07T06:32:07.888Z,5.10
2018-11-07T06:37:04.624Z,5.20
2018-11-07T06:39:33.113Z,5.20
2018-11-07T06:42:01.602Z,5.20
2018-11-07T06:44:30.119Z,5.20
2018-11-07T06:46:58.615Z,5.10
2018-11-07T06:49:27.112Z,5.20
2018-11-07T06:51:55.613Z,5.30
2018-11-07T06:54:24.097Z,5.40
2018-11-07T06:56:52.583Z,5.40
2018-11-07T06:59:21.066Z,6.00
2018-11-07T07:01:49.561Z,5.60
2018-11-07T07:04:18.036Z,5.60
2018-11-07T07:06:46.585Z,5.70
2018-11-07T07:09:15.071Z,5.80
2018-11-07T07:11:43.574Z,6.10
2018-11-07T07:14:12.050Z,6.10
2018-11-07T07:16:40.554Z,6.20
2018-11-07T07:19:08.998Z,6.30
2018-11-07T07:21:37.485Z,6.40
2018-11-07T07:24:06.090Z,6.90
2018-11-07T07:26:34.574Z,6.70
2018-11-07T07:29:03.087Z,6.80
2018-11-07T07:31:31.574Z,6.70
2018-11-07T07:34:00.053Z,6.80
2018-11-07T07:36:28.531Z,6.80
2018-11-07T07:38:57.050Z,6.80
2018-11-07T07:41:25.540Z,7.00
2018-11-07T07:43:54.029Z,7.10
2018-11-07T07:46:22.531Z,7.20
2018-11-07T07:48:51.049Z,7.30
2018-11-07T07:51:19.508Z,7.30
2018-11-07T07:53:48.023Z,7.30
2018-11-07T07:56:16.533Z,7.40
2018-11-07T07:58:45.023Z,7.50
2018-11-07T08:01:13.514Z,7.90
2018-11-07T08:03:42.097Z,8.00
2018-11-07T08:06:10.591Z,8.20
2018-11-07T08:08:39.069Z,8.40
2018-11-07T08:11:07.565Z,8.60
2018-11-07T08:13:36.158Z,9.00
2018-11-07T08:16:04.576Z,9.10
2018-11-07T08:18:33.064Z,9.30
2018-11-07T08:21:01.646Z,9.70
2018-11-07T08:23:30.097Z,10.10
2018-11-07T08:25:58.599Z,10.20
2018-11-07T08:28:27.095Z,10.20
2018-11-07T08:30:55.828Z,10.30
2018-11-07T08:33:24.204Z,10.70
2018-11-07T08:35:52.659Z,10.70
2018-11-07T08:38:21.115Z,10.80
2018-11-07T08:40:52.410Z,11.00
2018-11-07T08:43:20.908Z,10.90
2018-11-07T08:45:49.412Z,10.70
2018-11-07T08:48:17.980Z,10.80
2018-11-07T08:50:46.493Z,10.90
2018-11-07T08:53:14.986Z,10.90
2018-11-07T08:55:43.524Z,11.00
2018-11-07T08:58:12.056Z,11.10
2018-11-07T09:00:40.625Z,11.30
2018-11-07T09:03:09.154Z,11.20
2018-11-07T09:05:37.637Z,11.30
2018-11-07T09:08:06.154Z,11.50
2018-11-07T09:10:34.628Z,11.50
2018-11-07T09:13:03.122Z,11.60
2018-11-07T09:15:31.556Z,11.60
2018-11-07T09:18:00.051Z,11.50
2018-11-07T09:20:28.522Z,11.50
2018-11-07T09:22:56.986Z,11.40
2018-11-07T09:25:25.473Z,11.40
2018-11-07T09:27:53.945Z,11.40
2018-11-07T09:30:23.488Z,11.50
2018-11-07T09:32:52.036Z,11.60
2018-11-07T09:35:21.117Z,11.80
2018-11-07T09:37:49.610Z,12.10
2018-11-07T09:40:19.495Z,12.60
2018-11-07T09:42:48.531Z,13.10
2018-11-07T09:45:18.405Z,13.40
2018-11-07T09:47:47.429Z,14.00
2018-11-07T09:50:16.714Z,14.70
2018-11-07T09:52:45.678Z,15.10
2018-11-07T09:55:15.536Z,15.10
2018-11-07T09:57:44.322Z,15.20
2018-11-07T10:00:15.578Z,15.20
2018-11-07T10:02:44.468Z,15.20
2018-11-07T10:05:13.641Z,15.40
2018-11-07T10:07:42.343Z,15.40
2018-11-07T10:10:13.112Z,14.70
2018-11-07T10:12:41.995Z,14.50
2018-11-07T10:15:11.015Z,14.40
2018-11-07T10:17:39.537Z,14.50
2018-11-07T10:20:12.178Z,14.50
2018-11-07T10:22:41.173Z,14.40
2018-11-07T10:25:10.515Z,14.60
2018-11-07T10:27:39.239Z,14.80
2018-11-07T10:30:10.716Z,14.80
2018-11-07T10:32:39.285Z,14.90
2018-11-07T10:35:08.580Z,15.40
2018-11-07T10:37:37.157Z,15.40
2018-11-07T10:40:09.941Z,15.10
2018-11-07T10:42:38.463Z,14.80
2018-11-07T10:45:07.502Z,15.10
2018-11-07T10:47:36.022Z,15.00
2018-11-07T10:50:08.160Z,15.20
2018-11-07T10:52:36.771Z,15.30
2018-11-07T10:55:06.101Z,15.50
2018-11-07T10:57:34.678Z,15.70
2018-11-07T11:00:03.538Z,16.00
2018-11-07T11:02:37.387Z,16.30
2018-11-07T11:05:06.239Z,16.20
2018-11-07T11:07:34.831Z,16.70
2018-11-07T11:10:03.495Z,16.90
2018-11-07T11:12:32.061Z,17.30
2018-11-07T11:15:00.566Z,17.30
2018-11-07T11:17:29.132Z,17.40
2018-11-07T11:19:57.581Z,17.60
2018-11-07T11:22:26.167Z,17.80
2018-11-07T11:24:54.708Z,17.90
2018-11-07T11:27:23.208Z,18.20
2018-11-07T11:29:51.715Z,18.20
2018-11-07T11:32:20.248Z,18.10
2018-11-07T11:34:48.859Z,18.10
2018-11-07T11:37:17.411Z,18.20
2018-11-07T11:39:45.927Z,18.40
2018-11-07T11:42:14.516Z,18.20
2018-11-07T11:44:43.111Z,17.60
2018-11-07T11:47:11.579Z,17.60
2018-11-07T11:49:40.111Z,17.20
2018-11-07T11:52:08.639Z,17.30
2018-11-07T11:54:37.196Z,17.30
2018-11-07T11:57:05.993Z,17.20
2018-11-07T11:59:34.891Z,17.20
2018-11-07T12:02:03.304Z,17.40
2018-11-07T12:04:31.792Z,17.40
2018-11-07T12:07:00.315Z,17.50
2018-11-07T12:09:28.883Z,17.20
2018-11-07T12:11:57.452Z,17.10
2018-11-07T12:14:25.988Z,17.20
2018-11-07T12:16:54.502Z,17.20
2018-11-07T12:19:23.020Z,17.10
2018-11-07T12:21:51.583Z,17.00
2018-11-07T12:24:20.191Z,16.90
2018-11-07T12:26:48.809Z,16.90
2018-11-07T12:29:17.316Z,17.00
2018-11-07T12:31:45.841Z,17.00
2018-11-07T12:34:14.396Z,16.90
2018-11-07T12:36:42.925Z,17.00
2018-11-07T12:39:11.772Z,17.20
2018-11-07T12:41:40.354Z,17.50
2018-11-07T12:44:08.942Z,17.70
2018-11-07T12:46:37.515Z,17.90
2018-11-07T12:49:06.424Z,18.10
2018-11-07T12:51:34.975Z,18.30
2018-11-07T12:54:03.593Z,18.40
2018-11-07T12:56:32.167Z,18.20
2018-11-07T12:59:00.680Z,18.30
2018-11-07T13:01:29.194Z,18.60
2018-11-07T13:03:57.750Z,18.50
2018-11-07T13:06:26.295Z,18.60
2018-11-07T13:08:54.874Z,18.40
2018-11-07T13:11:23.501Z,17.90
2018-11-07T13:13:52.046Z,17.80
2018-11-07T13:16:20.603Z,17.60
2018-11-07T13:18:49.078Z,17.80
2018-11-07T13:21:17.600Z,17.80
2018-11-07T13:23:46.094Z,17.60
2018-11-07T13:26:14.614Z,17.60
2018-11-07T13:28:43.241Z,17.50
2018-11-07T13:31:11.921Z,17.40
2018-11-07T13:33:40.880Z,17.30
2018-11-07T13:36:09.438Z,17.20
2018-11-07T13:38:38.438Z,17.00
2018-11-07T13:41:06.709Z,16.80
2018-11-07T13:43:35.198Z,16.70
2018-11-07T13:46:03.781Z,16.70
2018-11-07T13:48:32.293Z,16.50
2018-11-07T13:51:00.855Z,16.50
2018-11-07T13:53:29.404Z,16.50
2018-11-07T13:55:57.946Z,16.40
2018-11-07T13:58:26.537Z,16.40
2018-11-07T14:00:55.107Z,16.20
2018-11-07T14:03:23.715Z,16.10
2018-11-07T14:05:52.467Z,16.10
2018-11-07T14:08:20.876Z,16.00
2018-11-07T14:10:49.528Z,16.00
2018-11-07T14:13:18.117Z,15.90
2018-11-07T14:15:46.736Z,15.80
2018-11-07T14:18:15.339Z,15.70
2018-11-07T14:20:43.877Z,15.60
2018-11-07T14:23:12.422Z,15.50
2018-11-07T14:25:40.969Z,15.40
2018-11-07T14:28:09.685Z,15.20
2018-11-07T14:30:38.169Z,15.20
2018-11-07T14:33:06.737Z,15.20
2018-11-07T14:35:35.420Z,15.20
2018-11-07T14:38:03.947Z,15.10
2018-11-07T14:40:32.519Z,15.00
2018-11-07T14:43:01.033Z,15.00
2018-11-07T14:45:29.521Z,14.90
2018-11-07T14:47:58.097Z,14.90
2018-11-07T14:50:26.595Z,14.80
2018-11-07T14:52:55.132Z,14.80
2018-11-07T14:55:23.679Z,14.80
2018-11-07T14:57:52.313Z,14.80
2018-11-07T15:00:20.920Z,14.60
2018-11-07T15:02:49.470Z,14.60
2018-11-07T15:05:18.712Z,14.50
2018-11-07T15:07:47.339Z,15.00
2018-11-07T15:10:16.702Z,14.50
2018-11-07T15:12:45.381Z,14.40
2018-11-07T15:15:15.325Z,14.30
2018-11-07T15:17:43.883Z,14.30
2018-11-07T15:20:13.594Z,14.20
2018-11-07T15:22:42.259Z,14.20
2018-11-07T15:25:12.014Z,14.10
2018-11-07T15:27:41.812Z,14.10
2018-11-07T15:30:11.446Z,14.10
2018-11-07T15:32:40.502Z,13.90
2018-11-07T15:35:09.560Z,13.80
2018-11-07T15:37:39.177Z,13.50
2018-11-07T15:40:10.189Z,13.60
2018-11-07T15:42:38.965Z,13.50
2018-11-07T15:45:09.378Z,13.50
2018-11-07T15:47:38.153Z,13.30
2018-11-07T15:50:12.151Z,13.10
2018-11-07T15:52:40.756Z,13.30
2018-11-07T15:55:09.492Z,13.10
2018-11-07T15:57:38.113Z,13.00
2018-11-07T16:00:09.469Z,12.60
2018-11-07T16:02:38.210Z,13.10
2018-11-07T16:05:07.525Z,12.90
2018-11-07T16:07:36.208Z,12.70
2018-11-07T16:10:05.283Z,12.50
2018-11-07T16:12:33.874Z,12.50
2018-11-07T16:15:02.424Z,12.60
2018-11-07T16:17:31.021Z,12.10
2018-11-07T16:19:59.738Z,12.20
2018-11-07T16:22:28.618Z,12.10
2018-11-07T16:24:57.263Z,12.20
2018-11-07T16:27:25.852Z,12.10
2018-11-07T16:29:54.403Z,12.10
2018-11-07T16:32:22.962Z,11.60
2018-11-07T16:37:20.328Z,11.80
2018-11-07T16:39:48.876Z,11.70
2018-11-07T16:42:17.484Z,11.50
2018-11-07T16:44:46.209Z,12.00
2018-11-07T16:49:43.101Z,11.40
2018-11-07T16:54:40.411Z,11.30
2018-11-07T16:57:09.408Z,10.90
2018-11-07T16:59:38.557Z,10.60
2018-11-07T17:02:07.418Z,10.90
2018-11-07T17:04:36.520Z,10.80
2018-11-07T17:07:05.613Z,11.00
2018-11-07T17:09:34.238Z,11.10
2018-11-07T17:12:02.884Z,10.70
2018-11-07T17:14:31.642Z,10.60
2018-11-07T17:17:01.541Z,10.40
2018-11-07T17:19:31.385Z,10.20
2018-11-07T17:22:01.417Z,10.30
2018-11-07T17:24:30.956Z,10.70
2018-11-07T17:27:02.237Z,10.10
2018-11-07T17:29:32.117Z,10.20
2018-11-07T17:32:02.257Z,10.70
2018-11-07T17:34:31.768Z,10.00
2018-11-07T17:37:02.362Z,9.90
2018-11-07T17:39:31.660Z,10.20
2018-11-07T17:42:00.345Z,9.80
2018-11-07T17:44:29.040Z,9.80
2018-11-07T17:46:57.930Z,9.70
2018-11-07T17:49:27.019Z,10.20
2018-11-07T17:51:55.757Z,9.80
2018-11-07T17:54:24.526Z,9.60
2018-11-07T17:56:55.071Z,9.60
2018-11-07T17:59:25.774Z,9.70
2018-11-07T18:01:55.808Z,9.70
2018-11-07T18:04:25.137Z,9.60
2018-11-07T18:06:53.792Z,9.30
2018-11-07T18:11:51.460Z,9.30
2018-11-07T18:14:20.132Z,9.30
2018-11-07T18:16:49.936Z,9.30
2018-11-07T18:19:18.678Z,9.50
2018-11-07T18:21:47.351Z,9.30
2018-11-07T18:24:16.773Z,9.20
2018-11-07T18:26:50.262Z,9.10
2018-11-07T18:31:48.730Z,8.70
2018-11-07T18:34:18.159Z,8.50
2018-11-07T18:36:47.201Z,8.60
2018-11-07T18:39:16.709Z,8.50
2018-11-07T18:41:45.912Z,8.40
2018-11-07T18:44:15.289Z,8.30
2018-11-07T18:46:44.141Z,8.30
2018-11-07T18:51:42.269Z,8.00
2018-11-07T18:56:42.773Z,8.30
2018-11-07T18:59:16.834Z,8.20
2018-11-07T19:01:46.226Z,8.00
2018-11-07T19:04:15.849Z,8.00
2018-11-07T19:06:44.593Z,8.00
2018-11-07T19:09:14.254Z,7.90
2018-11-07T19:11:44.979Z,8.10
2018-11-07T19:14:14.023Z,7.90
2018-11-07T19:16:45.900Z,8.00
2018-11-07T19:19:15.710Z,7.90
2018-11-07T19:21:44.496Z,7.60
2018-11-07T19:24:14.233Z,7.70
2018-11-07T19:29:16.691Z,7.60
2018-11-07T19:31:48.215Z,7.20
2018-11-07T19:34:19.205Z,7.50
2018-11-07T19:36:48.965Z,7.40
2018-11-07T19:39:22.197Z,9.90
2018-11-07T19:41:51.699Z,7.90
2018-11-07T19:44:20.687Z,7.50
2018-11-07T19:46:50.416Z,7.80
2018-11-07T19:49:20.267Z,7.60
2018-11-07T19:51:53.518Z,7.80
2018-11-07T19:54:22.180Z,7.40
2018-11-07T19:56:55.444Z,7.40
2018-11-07T20:01:54.155Z,7.60
2018-11-07T20:04:23.433Z,7.60
2018-11-07T20:06:53.857Z,7.40
2018-11-07T20:09:25.612Z,8.10
2018-11-07T20:16:54.580Z,7.40
2018-11-07T20:19:23.652Z,7.20
2018-11-07T20:21:56.086Z,7.10
2018-11-07T20:24:25.595Z,6.90
2018-11-07T20:29:23.510Z,7.30
2018-11-07T20:31:53.299Z,7.60
2018-11-07T20:34:22.856Z,6.90
2018-11-07T20:39:25.305Z,7.10
2018-11-07T20:41:55.261Z,7.20
2018-11-07T20:44:32.811Z,7.30
2018-11-07T20:47:07.843Z,7.30
2018-11-07T20:49:36.898Z,7.80
2018-11-07T20:52:06.680Z,7.60
2018-11-07T20:54:35.582Z,7.40
2018-11-07T20:57:04.683Z,7.20
2018-11-07T20:59:34.723Z,7.20
2018-11-07T21:02:05.986Z,7.30
2018-11-07T21:04:36.412Z,7.10
2018-11-07T21:09:34.480Z,7.90
2018-11-07T21:14:33.207Z,7.50
2018-11-07T21:17:03.265Z,7.70
2018-11-07T21:19:33.012Z,7.70
2018-11-07T21:22:02.129Z,7.70
2018-11-07T21:24:37.343Z,8.10
2018-11-07T21:27:07.455Z,7.90
2018-11-07T21:29:36.712Z,8.10
2018-11-07T21:32:06.644Z,8.00
2018-11-07T21:34:36.893Z,8.40
2018-11-07T21:37:06.044Z,8.30
2018-11-07T21:42:04.607Z,7.40
2018-11-07T21:44:33.829Z,8.10
2018-11-07T21:47:02.491Z,8.10
2018-11-07T21:49:32.089Z,7.80
2018-11-07T21:52:00.742Z,8.30
2018-11-07T21:54:29.725Z,8.00
2018-11-07T21:56:59.311Z,7.80
2018-11-07T21:59:28.304Z,7.70
2018-11-07T22:01:57.054Z,7.80
2018-11-07T22:04:25.990Z,7.80
2018-11-07T22:06:55.518Z,7.50
2018-11-07T22:09:24.783Z,7.50
2018-11-07T22:11:53.407Z,7.70
2018-11-07T22:14:21.960Z,7.50
2018-11-07T22:16:50.550Z,7.40
2018-11-07T22:19:19.186Z,7.70
2018-11-07T22:21:47.810Z,7.80
2018-11-07T22:24:16.364Z,7.70
2018-11-07T22:26:45.267Z,7.90
2018-11-07T22:29:14.604Z,8.10
2018-11-07T22:34:12.224Z,8.80
2018-11-07T22:36:40.805Z,7.80
2018-11-07T22:39:11.731Z,8.10
2018-11-07T22:41:40.329Z,8.40
2018-11-07T22:44:09.553Z,8.80
2018-11-07T22:46:38.123Z,8.20
2018-11-07T22:49:06.719Z,8.20
2018-11-07T22:51:35.321Z,8.50
2018-11-07T22:56:32.527Z,8.20
2018-11-07T22:59:01.050Z,7.80
2018-11-07T23:01:34.905Z,7.90
2018-11-07T23:04:03.477Z,7.80
2018-11-07T23:06:32.074Z,7.60
2018-11-07T23:09:00.645Z,7.70
2018-11-07T23:11:29.216Z,7.50
2018-11-07T23:13:57.765Z,7.80
2018-11-07T23:16:26.325Z,6.80
2018-11-07T23:18:54.898Z,7.50
2018-11-07T23:21:23.469Z,7.40
2018-11-07T23:23:52.024Z,7.30
2018-11-07T23:26:20.541Z,7.30
2018-11-07T23:28:49.062Z,7.20
2018-11-07T23:31:17.586Z,7.20
2018-11-07T23:33:46.113Z,7.10
2018-11-07T23:36:14.656Z,7.10
2018-11-07T23:38:43.558Z,6.90
2018-11-07T23:41:12.153Z,6.50
2018-11-07T23:43:40.683Z,7.10
2018-11-07T23:46:09.582Z,6.60
2018-11-07T23:48:38.120Z,6.60
2018-11-07T23:51:06.676Z,6.70
2018-11-07T23:53:35.219Z,6.60
2018-11-07T23:56:03.826Z,6.40
2018-11-07T23:58:32.398Z,6.40
